createdAt,value
2023-04-08T00:02:00.216Z,57.35
2023-04-08T00:04:30.117Z,56.15
2023-04-08T00:07:00.114Z,64.13
2023-04-08T00:09:29.856Z,55.47
2023-04-08T00:12:00.157Z,58.95
2023-04-08T00:14:29.992Z,57.08
2023-04-08T00:16:59.981Z,58.50
2023-04-08T00:19:29.819Z,56.92
2023-04-08T00:21:59.826Z,58.60
2023-04-08T00:24:29.537Z,51.53
2023-04-08T00:26:59.669Z,55.75
2023-04-08T00:29:29.366Z,52.60
2023-04-08T00:31:59.662Z,50.42
2023-04-08T00:34:29.472Z,52.53
2023-04-08T00:36:59.524Z,51.13
2023-04-08T00:39:29.272Z,55.00
2023-04-08T00:41:59.338Z,51.78
2023-04-08T00:44:29.394Z,55.90
2023-04-08T00:47:00.146Z,53.17
2023-04-08T00:49:30.172Z,54.63
2023-04-08T00:52:02.249Z,56.30
2023-04-08T00:54:33.559Z,54.35
2023-04-08T00:57:04.024Z,56.33
2023-04-08T00:59:34.854Z,51.90
2023-04-08T01:02:24.103Z,50.97
2023-04-08T01:05:24.364Z,54.20
2023-04-08T01:07:54.666Z,49.70
2023-04-08T01:10:30.872Z,50.45
2023-04-08T01:13:05.720Z,63.67
2023-04-08T01:15:38.553Z,57.25
2023-04-08T01:18:12.138Z,57.42
2023-04-08T01:20:47.481Z,53.95
2023-04-08T01:23:57.373Z,61.85
2023-04-08T01:26:28.625Z,64.85
2023-04-08T01:29:02.609Z,55.30
2023-04-08T01:31:33.720Z,58.13
2023-04-08T01:34:06.296Z,50.85
2023-04-08T01:36:38.041Z,56.20
2023-04-08T01:39:09.801Z,58.80
2023-04-08T01:41:40.189Z,54.15
2023-04-08T01:44:11.812Z,54.20
2023-04-08T01:46:43.946Z,49.47
2023-04-08T01:49:14.415Z,49.53
2023-04-08T01:51:46.596Z,58.28
2023-04-08T01:54:16.966Z,49.05
2023-04-08T01:56:48.064Z,54.67
2023-04-08T01:59:21.885Z,48.45
2023-04-08T02:01:53.926Z,58.00
2023-04-08T02:04:24.314Z,57.05
2023-04-08T02:06:54.633Z,51.85
2023-04-08T02:09:27.001Z,54.35
2023-04-08T02:11:58.484Z,50.65
2023-04-08T02:14:30.693Z,48.60
2023-04-08T02:17:23.865Z,47.25
2023-04-08T02:20:13.601Z,44.88
2023-04-08T02:22:52.261Z,48.50
2023-04-08T02:25:26.782Z,48.63
2023-04-08T02:27:57.839Z,64.15
2023-04-08T02:30:29.748Z,44.63
2023-04-08T02:33:01.130Z,45.13
2023-04-08T02:35:31.633Z,47.10
2023-04-08T02:38:01.908Z,47.50
2023-04-08T02:40:34.527Z,49.17
2023-04-08T02:43:06.402Z,48.22
2023-04-08T02:45:47.512Z,50.30
2023-04-08T02:48:18.336Z,45.58
2023-04-08T02:50:48.429Z,44.80
2023-04-08T02:53:18.614Z,46.10
2023-04-08T02:55:48.516Z,53.75
2023-04-08T02:58:18.564Z,43.08
2023-04-08T03:00:48.566Z,42.38
2023-04-08T03:03:18.713Z,43.90
2023-04-08T03:05:48.505Z,44.63
2023-04-08T03:08:18.457Z,44.22
2023-04-08T03:10:48.210Z,81.45
2023-04-08T03:13:18.868Z,43.85
2023-04-08T03:15:48.632Z,46.70
2023-04-08T03:18:19.330Z,44.63
2023-04-08T03:20:49.091Z,48.47
2023-04-08T03:23:19.147Z,44.30
2023-04-08T03:25:48.914Z,45.13
2023-04-08T03:28:18.960Z,47.67
2023-04-08T03:30:48.988Z,45.97
2023-04-08T03:33:18.911Z,45.30
2023-04-08T03:35:48.676Z,51.80
2023-04-08T03:38:18.630Z,49.45
2023-04-08T03:40:48.374Z,51.30
2023-04-08T03:43:18.356Z,46.63
2023-04-08T03:45:48.833Z,45.10
2023-04-08T03:48:19.211Z,45.35
2023-04-08T03:50:49.418Z,45.10
2023-04-08T03:53:19.360Z,45.20
2023-04-08T03:55:52.731Z,47.70
2023-04-08T03:58:22.871Z,44.55
2023-04-08T04:00:53.045Z,46.78
2023-04-08T04:03:23.172Z,47.17
2023-04-08T04:05:53.254Z,45.67
2023-04-08T04:08:23.412Z,46.72
2023-04-08T04:10:53.314Z,45.85
2023-04-08T04:13:23.538Z,46.75
2023-04-08T04:15:53.436Z,44.42
2023-04-08T04:18:23.573Z,48.28
2023-04-08T04:20:53.328Z,43.47
2023-04-08T04:23:24.340Z,44.88
2023-04-08T04:25:54.260Z,45.53
2023-04-08T04:28:24.171Z,45.08
2023-04-08T04:30:55.921Z,42.80
2023-04-08T04:33:26.586Z,40.20
2023-04-08T04:35:56.402Z,46.58
2023-04-08T04:38:26.311Z,41.40
2023-04-08T04:40:56.251Z,42.15
2023-04-08T04:43:26.378Z,39.60
2023-04-08T04:45:58.227Z,41.28
2023-04-08T04:48:28.481Z,39.50
2023-04-08T04:50:59.838Z,39.75
2023-04-08T04:53:29.951Z,43.08
2023-04-08T04:55:59.738Z,45.65
2023-04-08T04:58:30.207Z,43.53
2023-04-08T05:01:00.207Z,41.22
2023-04-08T05:03:30.393Z,39.83
2023-04-08T05:06:00.148Z,40.40
2023-04-08T05:08:30.155Z,39.55
2023-04-08T05:11:03.597Z,41.15
2023-04-08T05:13:34.925Z,41.20
2023-04-08T05:16:04.968Z,42.30
2023-04-08T05:18:34.766Z,41.53
2023-04-08T05:21:05.369Z,40.55
2023-04-08T05:23:36.494Z,40.75
2023-04-08T05:26:10.400Z,40.78
2023-04-08T05:28:40.404Z,42.05
2023-04-08T05:31:10.260Z,42.38
2023-04-08T05:33:40.457Z,42.00
2023-04-08T05:36:10.282Z,41.90
2023-04-08T05:38:41.242Z,42.63
2023-04-08T05:41:11.262Z,42.90
2023-04-08T05:43:41.944Z,45.05
2023-04-08T05:46:13.193Z,41.72
2023-04-08T05:48:43.671Z,43.80
2023-04-08T05:51:19.283Z,44.60
2023-04-08T05:53:49.496Z,43.90
2023-04-08T05:56:19.311Z,46.28
2023-04-08T05:58:49.763Z,57.80
2023-04-08T06:01:19.694Z,43.97
2023-04-08T06:03:50.042Z,44.88
2023-04-08T06:06:20.057Z,42.55
2023-04-08T06:08:50.317Z,41.15
2023-04-08T06:11:20.626Z,45.00
2023-04-08T06:13:50.388Z,43.47
2023-04-08T06:16:21.379Z,44.05
2023-04-08T06:18:51.996Z,42.40
2023-04-08T06:21:22.979Z,41.95
2023-04-08T06:23:53.124Z,42.85
2023-04-08T06:26:23.106Z,43.22
2023-04-08T06:28:53.722Z,42.55
2023-04-08T06:31:23.990Z,43.08
2023-04-08T06:33:54.148Z,41.40
2023-04-08T06:36:24.180Z,41.13
2023-04-08T06:38:54.046Z,41.75
2023-04-08T06:41:24.192Z,42.70
2023-04-08T06:43:54.172Z,40.65
2023-04-08T06:46:26.117Z,45.60
2023-04-08T06:48:57.280Z,41.53
2023-04-08T06:51:27.350Z,39.47
2023-04-08T06:53:57.929Z,38.95
2023-04-08T06:56:27.877Z,39.88
2023-04-08T06:58:58.108Z,38.65
2023-04-08T07:01:28.083Z,38.75
2023-04-08T07:04:00.871Z,38.78
2023-04-08T07:06:31.194Z,38.90
2023-04-08T07:09:01.019Z,38.05
2023-04-08T07:11:31.082Z,38.45
2023-04-08T07:14:00.932Z,40.10
2023-04-08T07:16:31.034Z,39.53
2023-04-08T07:19:00.979Z,40.47
2023-04-08T07:21:32.622Z,38.60
2023-04-08T07:24:02.780Z,40.13
2023-04-08T07:26:32.769Z,43.13
2023-04-08T07:29:02.738Z,40.78
2023-04-08T07:31:32.739Z,41.78
2023-04-08T07:34:02.977Z,39.47
2023-04-08T07:36:33.244Z,42.72
2023-04-08T07:39:03.474Z,43.40
2023-04-08T07:41:33.381Z,42.30
2023-04-08T07:44:03.558Z,45.08
2023-04-08T07:46:35.616Z,45.40
2023-04-08T07:49:05.900Z,44.45
2023-04-08T07:51:36.390Z,47.65
2023-04-08T07:54:06.437Z,48.10
2023-04-08T07:56:36.297Z,49.15
2023-04-08T07:59:06.744Z,48.58
2023-04-08T08:01:37.511Z,51.20
2023-04-08T08:04:08.022Z,54.47
2023-04-08T08:06:37.847Z,59.80
2023-04-08T08:09:08.176Z,59.67
2023-04-08T08:11:38.051Z,60.25
2023-04-08T08:14:09.542Z,53.38
2023-04-08T08:16:40.324Z,48.35
2023-04-08T08:19:10.402Z,48.50
2023-04-08T08:21:41.089Z,46.72
2023-04-08T08:24:10.971Z,49.25
2023-04-08T08:26:41.360Z,49.90
2023-04-08T08:29:11.106Z,48.10
2023-04-08T08:32:13.636Z,44.47
2023-04-08T08:34:43.721Z,41.45
2023-04-08T08:37:13.497Z,42.60
2023-04-08T08:39:43.380Z,37.90
2023-04-08T08:42:23.993Z,48.95
2023-04-08T08:44:54.353Z,40.72
2023-04-08T08:47:24.245Z,39.50
2023-04-08T08:49:54.414Z,32.28
2023-04-08T08:52:24.237Z,33.30
2023-04-08T08:55:01.425Z,36.42
2023-04-08T08:57:31.697Z,35.30
2023-04-08T09:00:01.529Z,38.33
2023-04-08T09:02:35.331Z,37.13
2023-04-08T09:05:07.236Z,49.20
2023-04-08T09:07:44.117Z,46.05
2023-04-08T09:10:14.347Z,35.60
2023-04-08T09:13:04.015Z,37.33
2023-04-08T09:16:07.092Z,39.97
2023-04-08T09:18:38.764Z,38.72
2023-04-08T09:21:29.019Z,37.45
2023-04-08T09:23:59.044Z,36.97
2023-04-08T09:26:29.172Z,41.08
2023-04-08T09:29:25.451Z,39.97
2023-04-08T09:31:59.253Z,38.35
2023-04-08T09:34:32.452Z,38.85
2023-04-08T09:37:02.516Z,48.00
2023-04-08T09:39:33.144Z,43.80
2023-04-08T09:42:08.336Z,43.00
2023-04-08T09:44:39.935Z,43.65
2023-04-08T09:47:23.965Z,50.78
2023-04-08T09:49:59.981Z,44.03
2023-04-08T09:52:38.910Z,45.70
2023-04-08T09:58:54.496Z,48.60
2023-04-08T10:01:39.762Z,49.58
2023-04-08T10:04:16.469Z,47.35
2023-04-08T10:06:47.651Z,49.10
2023-04-08T10:09:18.034Z,48.25
2023-04-08T10:11:48.301Z,48.05
2023-04-08T10:14:18.473Z,50.58
2023-04-08T10:16:48.343Z,56.15
2023-04-08T10:19:46.159Z,50.17
2023-04-08T10:22:50.805Z,51.83
2023-04-08T10:25:46.646Z,50.42
2023-04-08T10:28:34.539Z,50.00
2023-04-08T10:31:04.904Z,51.65
2023-04-08T10:33:40.849Z,47.50
2023-04-08T10:36:14.965Z,45.67
2023-04-08T10:38:45.237Z,46.95
2023-04-08T10:41:15.784Z,47.65
2023-04-08T10:43:49.854Z,54.60
2023-04-08T10:46:20.168Z,50.20
2023-04-08T10:49:07.223Z,49.00
2023-04-08T10:51:37.494Z,54.33
2023-04-08T10:54:18.597Z,56.20
2023-04-08T10:56:55.052Z,58.88
2023-04-08T10:59:34.360Z,52.05
2023-04-08T11:02:05.077Z,53.15
2023-04-08T11:04:35.026Z,47.75
2023-04-08T11:07:10.005Z,53.42
2023-04-08T11:09:42.615Z,54.28
2023-04-08T11:12:13.411Z,46.78
2023-04-08T11:14:44.749Z,48.22
2023-04-08T11:17:17.861Z,53.20
2023-04-08T11:19:48.761Z,69.05
2023-04-08T11:22:19.856Z,81.00
2023-04-08T11:24:50.396Z,55.65
2023-04-08T11:27:20.766Z,64.40
2023-04-08T11:29:50.855Z,57.70
2023-04-08T11:32:21.712Z,61.40
2023-04-08T11:34:52.482Z,55.28
2023-04-08T11:37:23.769Z,62.63
2023-04-08T11:39:56.376Z,63.55
2023-04-08T11:42:34.181Z,76.20
2023-04-08T11:45:11.548Z,73.72
2023-04-08T11:47:42.099Z,70.72
2023-04-08T11:50:12.924Z,71.72
2023-04-08T11:52:45.598Z,68.13
2023-04-08T11:55:29.020Z,71.47
2023-04-08T11:58:03.529Z,70.40
2023-04-08T12:00:34.620Z,62.92
2023-04-08T12:03:05.332Z,63.75
2023-04-08T12:05:35.619Z,66.95
2023-04-08T12:08:05.846Z,63.17
2023-04-08T12:10:36.232Z,65.10
2023-04-08T12:13:06.176Z,70.78
2023-04-08T12:15:36.247Z,64.60
2023-04-08T12:18:07.392Z,73.75
2023-04-08T12:20:37.654Z,72.80
2023-04-08T12:23:09.536Z,67.00
2023-04-08T12:25:39.924Z,64.82
2023-04-08T12:28:11.349Z,69.72
2023-04-08T12:30:41.452Z,66.82
2023-04-08T12:33:11.219Z,59.78
2023-04-08T12:35:41.189Z,60.20
2023-04-08T12:38:11.060Z,61.10
2023-04-08T12:40:41.001Z,63.30
2023-04-08T12:43:10.773Z,59.60
2023-04-08T12:45:40.884Z,67.25
2023-04-08T12:48:10.848Z,67.60
2023-04-08T12:50:40.880Z,73.28
2023-04-08T12:53:10.825Z,73.53
2023-04-08T12:55:42.275Z,88.45
2023-04-08T12:58:13.918Z,85.90
2023-04-08T13:00:47.955Z,85.50
2023-04-08T13:03:19.524Z,83.03
2023-04-08T13:05:50.092Z,85.35
2023-04-08T13:08:19.877Z,85.50
2023-04-08T13:10:50.073Z,100.97
2023-04-08T13:13:20.100Z,85.00
2023-04-08T13:15:50.611Z,86.10
2023-04-08T13:18:20.765Z,83.13
2023-04-08T13:20:50.588Z,80.85
2023-04-08T13:23:20.650Z,76.35
2023-04-08T13:25:50.948Z,71.70
2023-04-08T13:28:21.152Z,79.15
2023-04-08T13:30:51.013Z,77.60
2023-04-08T13:33:21.177Z,74.97
2023-04-08T13:35:51.124Z,73.65
2023-04-08T13:38:21.414Z,71.72
2023-04-08T13:40:51.768Z,93.07
2023-04-08T13:43:22.171Z,91.65
2023-04-08T13:45:51.996Z,88.07
2023-04-08T13:48:23.005Z,81.85
2023-04-08T13:50:52.742Z,75.60
2023-04-08T13:53:22.789Z,79.00
2023-04-08T13:55:56.522Z,77.97
2023-04-08T13:58:28.032Z,64.97
2023-04-08T14:00:58.674Z,66.40
2023-04-08T14:03:29.695Z,67.88
2023-04-08T14:06:01.719Z,66.15
2023-04-08T14:08:32.348Z,69.45
2023-04-08T14:11:02.278Z,72.88
2023-04-08T14:13:33.840Z,70.18
2023-04-08T14:16:04.558Z,70.10
2023-04-08T14:18:34.610Z,76.28
2023-04-08T14:21:05.169Z,69.05
2023-04-08T14:23:35.363Z,73.90
2023-04-08T14:26:05.141Z,78.47
2023-04-08T14:28:35.125Z,70.88
2023-04-08T14:31:06.277Z,73.78
2023-04-08T14:33:36.355Z,69.03
2023-04-08T14:36:06.327Z,68.75
2023-04-08T14:38:37.004Z,68.07
2023-04-08T14:41:06.836Z,70.60
2023-04-08T14:43:36.910Z,90.88
2023-04-08T14:46:07.094Z,82.32
2023-04-08T14:48:37.285Z,78.85
2023-04-08T14:51:07.885Z,83.32
2023-04-08T14:53:38.125Z,70.82
2023-04-08T14:56:10.177Z,66.57
2023-04-08T14:58:40.383Z,74.97
2023-04-08T15:01:10.210Z,80.38
2023-04-08T15:03:40.452Z,67.80
2023-04-08T15:06:10.457Z,62.13
2023-04-08T15:08:41.025Z,69.82
2023-04-08T15:11:11.119Z,59.20
2023-04-08T15:13:41.943Z,69.75
2023-04-08T15:16:11.973Z,64.15
2023-04-08T15:18:42.548Z,67.93
2023-04-08T15:21:12.520Z,72.05
2023-04-08T15:23:43.621Z,61.15
2023-04-08T15:26:13.741Z,81.47
2023-04-08T15:28:43.706Z,70.72
2023-04-08T15:31:13.797Z,75.05
2023-04-08T15:33:45.163Z,77.28
2023-04-08T15:36:20.974Z,94.13
2023-04-08T15:38:51.312Z,89.03
2023-04-08T15:41:23.684Z,78.93
2023-04-08T15:43:55.522Z,96.30
2023-04-08T15:46:25.968Z,83.20
2023-04-08T15:48:56.262Z,81.05
2023-04-08T15:51:28.508Z,172.43
2023-04-08T15:53:59.024Z,75.72
2023-04-08T15:56:30.995Z,68.28
2023-04-08T15:59:01.162Z,79.45
2023-04-08T16:01:30.946Z,70.90
2023-04-08T16:04:01.244Z,76.70
2023-04-08T16:06:31.776Z,81.75
2023-04-08T16:09:02.161Z,77.50
2023-04-08T16:11:32.295Z,79.35
2023-04-08T16:14:02.408Z,78.95
2023-04-08T16:16:33.330Z,84.68
2023-04-08T16:19:03.739Z,84.00
2023-04-08T16:21:33.890Z,79.78
2023-04-08T16:24:04.057Z,87.55
2023-04-08T16:26:33.839Z,79.07
2023-04-08T16:29:04.086Z,83.30
2023-04-08T16:31:33.837Z,75.85
2023-04-08T16:34:03.866Z,69.10
2023-04-08T16:36:33.748Z,69.35
2023-04-08T16:39:03.820Z,69.35
2023-04-08T16:41:33.512Z,71.60
2023-04-08T16:44:03.422Z,74.10
2023-04-08T16:46:33.467Z,78.68
2023-04-08T16:49:03.440Z,73.50
2023-04-08T16:51:33.801Z,67.45
2023-04-08T16:54:03.694Z,76.13
2023-04-08T16:56:33.665Z,70.20
2023-04-08T16:59:03.630Z,68.78
2023-04-08T17:01:33.457Z,70.35
2023-04-08T17:04:03.436Z,67.30
2023-04-08T17:06:33.266Z,67.93
2023-04-08T17:09:04.308Z,69.28
2023-04-08T17:11:34.282Z,72.15
2023-04-08T17:14:04.254Z,101.15
2023-04-08T17:16:34.256Z,102.05
2023-04-08T17:19:04.035Z,109.60
2023-04-08T17:21:34.049Z,111.60
2023-04-08T17:24:03.783Z,104.00
2023-04-08T17:26:33.812Z,108.53
2023-04-08T17:29:03.533Z,93.25
2023-04-08T17:31:34.545Z,91.97
2023-04-08T17:34:04.956Z,88.72
2023-04-08T17:36:34.700Z,85.82
2023-04-08T17:39:04.624Z,88.57
2023-04-08T17:41:40.539Z,87.78
2023-04-08T17:44:11.455Z,92.25
2023-04-08T17:46:41.182Z,94.70
2023-04-08T17:49:14.324Z,91.32
2023-04-08T17:51:44.490Z,97.70
2023-04-08T17:54:14.449Z,98.13
2023-04-08T17:56:45.219Z,99.05
2023-04-08T17:59:16.007Z,115.82
2023-04-08T18:01:45.930Z,124.43
2023-04-08T18:04:16.126Z,125.63
2023-04-08T18:06:46.006Z,124.00
2023-04-08T18:09:16.104Z,124.57
2023-04-08T18:11:45.815Z,120.47
2023-04-08T18:14:15.750Z,126.78
2023-04-08T18:16:45.605Z,137.57
2023-04-08T18:19:15.626Z,136.10
2023-04-08T18:21:45.408Z,129.57
2023-04-08T18:24:15.421Z,134.45
2023-04-08T18:26:49.113Z,142.50
2023-04-08T18:29:24.533Z,132.07
2023-04-08T18:31:54.305Z,132.90
2023-04-08T18:34:26.081Z,129.68
2023-04-08T18:36:56.265Z,101.35
2023-04-08T18:39:26.099Z,103.95
2023-04-08T18:41:56.012Z,98.00
2023-04-08T18:44:25.773Z,109.30
2023-04-08T18:46:55.680Z,108.88
2023-04-08T18:49:25.513Z,101.38
2023-04-08T18:52:02.339Z,96.20
2023-04-08T18:54:33.562Z,88.05
2023-04-08T18:57:04.241Z,84.00
2023-04-08T18:59:34.404Z,73.90
2023-04-08T19:02:04.234Z,69.35
2023-04-08T19:04:34.932Z,66.13
2023-04-08T19:07:04.672Z,56.55
2023-04-08T19:09:34.921Z,52.42
2023-04-08T19:12:04.626Z,52.22
2023-04-08T19:14:34.657Z,53.33
2023-04-08T19:17:04.388Z,56.13
2023-04-08T19:19:34.572Z,53.65
2023-04-08T19:22:07.082Z,52.08
2023-04-08T19:24:38.173Z,57.30
2023-04-08T19:27:08.007Z,52.92
2023-04-08T19:29:38.308Z,52.50
2023-04-08T19:32:08.253Z,48.22
2023-04-08T19:34:41.225Z,48.45
2023-04-08T19:37:11.598Z,49.08
2023-04-08T19:39:41.481Z,44.00
2023-04-08T19:42:12.403Z,43.70
2023-04-08T19:44:42.851Z,44.28
2023-04-08T19:47:12.826Z,43.03
2023-04-08T19:49:42.842Z,42.95
2023-04-08T19:52:12.986Z,43.20
2023-04-08T19:54:44.766Z,44.00
2023-04-08T19:57:14.792Z,43.53
2023-04-08T19:59:44.614Z,40.25
2023-04-08T20:02:14.870Z,47.83
2023-04-08T20:04:46.228Z,41.83
2023-04-08T20:07:16.543Z,43.13
2023-04-08T20:09:46.359Z,41.75
2023-04-08T20:12:16.321Z,38.40
2023-04-08T20:14:46.583Z,39.00
2023-04-08T20:17:17.930Z,38.75
2023-04-08T20:19:47.919Z,41.90
2023-04-08T20:22:17.697Z,39.65
2023-04-08T20:24:49.280Z,39.45
2023-04-08T20:27:20.575Z,38.35
2023-04-08T20:29:50.820Z,39.35
2023-04-08T20:32:20.772Z,39.10
2023-04-08T20:34:50.916Z,38.55
2023-04-08T20:37:21.116Z,40.38
2023-04-08T20:39:51.110Z,37.80
2023-04-08T20:42:20.866Z,39.53
2023-04-08T20:44:50.927Z,38.17
2023-04-08T20:47:21.205Z,38.85
2023-04-08T20:49:51.364Z,38.28
2023-04-08T20:52:21.119Z,38.92
2023-04-08T20:54:51.129Z,40.67
2023-04-08T20:57:20.991Z,41.70
2023-04-08T20:59:51.188Z,44.75
2023-04-08T21:02:23.079Z,44.88
2023-04-08T21:04:53.381Z,41.03
2023-04-08T21:07:23.189Z,40.88
2023-04-08T21:09:53.306Z,38.67
2023-04-08T21:12:23.024Z,39.20
2023-04-08T21:14:53.198Z,39.58
2023-04-08T21:17:23.110Z,39.65
2023-04-08T21:19:53.613Z,43.03
2023-04-08T21:22:23.766Z,33.13
2023-04-08T21:24:53.550Z,30.80
2023-04-08T21:27:23.470Z,29.00
2023-04-08T21:29:54.178Z,31.25
2023-04-08T21:32:24.263Z,29.38
2023-04-08T21:34:57.271Z,29.90
2023-04-08T21:37:27.440Z,28.90
2023-04-08T21:39:57.552Z,34.47
2023-04-08T21:42:29.054Z,28.67
2023-04-08T21:44:59.112Z,27.70
2023-04-08T21:47:28.980Z,29.38
2023-04-08T21:49:59.217Z,29.15
2023-04-08T21:52:28.955Z,27.45
2023-04-08T21:54:58.998Z,28.05
2023-04-08T21:57:28.697Z,28.13
2023-04-08T21:59:58.759Z,27.90
2023-04-08T22:02:28.783Z,27.13
2023-04-08T22:04:59.919Z,25.48
2023-04-08T22:07:29.834Z,27.90
2023-04-08T22:10:01.345Z,25.63
2023-04-08T22:12:32.873Z,26.40
2023-04-08T22:15:02.852Z,24.90
2023-04-08T22:17:32.970Z,27.27
2023-04-08T22:20:02.981Z,28.73
2023-04-08T22:22:32.694Z,25.35
2023-04-08T22:25:03.182Z,24.67
2023-04-08T22:27:33.283Z,25.27
2023-04-08T22:30:03.231Z,26.42
2023-04-08T22:32:33.058Z,30.25
2023-04-08T22:35:03.160Z,29.05
2023-04-08T22:37:34.066Z,27.90
2023-04-08T22:40:05.231Z,25.42
2023-04-08T22:42:34.991Z,24.40
2023-04-08T22:45:06.542Z,24.73
2023-04-08T22:47:36.658Z,26.33
2023-04-08T22:50:06.984Z,25.70
2023-04-08T22:52:37.879Z,30.60
2023-04-08T22:55:08.607Z,31.95
2023-04-08T22:57:38.954Z,30.48
2023-04-08T23:00:09.407Z,28.38
2023-04-08T23:02:39.779Z,28.35
2023-04-08T23:05:10.178Z,29.52
2023-04-08T23:07:40.386Z,26.25
2023-04-08T23:10:10.758Z,25.38
2023-04-08T23:12:40.726Z,27.17
2023-04-08T23:15:10.734Z,26.40
2023-04-08T23:17:40.914Z,35.30
2023-04-08T23:20:11.260Z,28.15
2023-04-08T23:22:41.281Z,27.83
2023-04-08T23:25:11.709Z,25.55
2023-04-08T23:27:41.986Z,29.10
2023-04-08T23:30:12.181Z,24.60
2023-04-08T23:32:42.200Z,40.83
2023-04-08T23:35:12.209Z,48.58
2023-04-08T23:37:42.355Z,37.22
2023-04-08T23:40:12.530Z,28.50
2023-04-08T23:42:42.489Z,25.05
2023-04-08T23:45:12.622Z,26.67
2023-04-08T23:47:42.807Z,26.73
2023-04-08T23:50:12.669Z,27.48
2023-04-08T23:52:42.964Z,24.38
2023-04-08T23:55:12.837Z,24.45
2023-04-08T23:57:45.945Z,24.35
